createdAt,value
2023-05-07T00:04:27.565Z,16.52
2023-05-07T00:09:29.720Z,17.08
2023-05-07T00:14:32.126Z,14.95
2023-05-07T00:19:33.957Z,13.55
2023-05-07T00:24:35.912Z,13.18
2023-05-07T00:29:37.838Z,12.93
2023-05-07T00:34:40.786Z,10.27
2023-05-07T00:39:42.612Z,11.68
2023-05-07T00:44:44.493Z,13.68
2023-05-07T00:49:46.873Z,12.30
2023-05-07T00:54:49.293Z,13.93
2023-05-07T00:59:53.185Z,13.57
2023-05-07T01:04:56.685Z,14.30
2023-05-07T01:10:03.430Z,14.32
2023-05-07T01:15:06.829Z,14.48
2023-05-07T01:20:11.717Z,13.98
2023-05-07T01:25:14.810Z,14.13
2023-05-07T01:30:23.454Z,14.00
2023-05-07T01:35:33.712Z,15.40
2023-05-07T01:40:36.134Z,15.52
2023-05-07T01:45:39.283Z,16.50
2023-05-07T01:50:42.514Z,17.50
2023-05-07T01:55:44.419Z,17.05
2023-05-07T02:00:46.409Z,19.17
2023-05-07T02:05:48.358Z,15.50
2023-05-07T02:11:02.351Z,17.65
2023-05-07T02:16:05.749Z,17.85
2023-05-07T02:21:07.699Z,15.98
2023-05-07T02:26:09.904Z,15.60
2023-05-07T02:31:13.431Z,16.02
2023-05-07T02:36:15.404Z,22.92
2023-05-07T02:41:32.351Z,16.42
2023-05-07T02:46:34.559Z,16.55
2023-05-07T02:51:41.563Z,19.70
2023-05-07T02:56:49.303Z,17.38
2023-05-07T03:01:51.373Z,15.70
2023-05-07T03:06:53.530Z,18.67
2023-05-07T03:11:55.383Z,16.40
2023-05-07T03:16:57.156Z,15.32
2023-05-07T03:21:59.460Z,19.27
2023-05-07T03:27:02.318Z,18.20
2023-05-07T03:32:05.512Z,17.85
2023-05-07T03:37:07.757Z,12.35
2023-05-07T03:42:09.645Z,15.02
2023-05-07T03:47:11.939Z,14.20
2023-05-07T03:52:14.772Z,15.52
2023-05-07T03:57:16.869Z,12.60
2023-05-07T04:02:18.902Z,9.25
2023-05-07T04:07:21.273Z,8.07
2023-05-07T04:12:26.056Z,8.68
2023-05-07T04:17:28.163Z,9.57
2023-05-07T04:22:30.020Z,9.60
2023-05-07T04:27:33.119Z,8.15
2023-05-07T04:32:35.151Z,12.10
2023-05-07T04:37:37.198Z,7.70
2023-05-07T04:42:40.196Z,9.70
2023-05-07T04:47:43.415Z,12.95
2023-05-07T04:52:46.346Z,12.88
2023-05-07T04:57:48.927Z,14.68
2023-05-07T05:02:51.886Z,8.75
2023-05-07T05:07:56.345Z,13.13
2023-05-07T05:12:59.157Z,10.52
2023-05-07T05:18:02.733Z,10.23
2023-05-07T05:23:07.057Z,17.92
2023-05-07T05:28:09.485Z,12.75
2023-05-07T05:33:11.709Z,10.77
2023-05-07T05:38:14.651Z,13.32
2023-05-07T05:43:17.103Z,12.60
2023-05-07T05:48:19.099Z,10.55
2023-05-07T05:53:21.462Z,9.32
2023-05-07T05:58:23.351Z,12.48
2023-05-07T06:03:33.510Z,9.65
2023-05-07T06:08:39.156Z,10.40
2023-05-07T06:13:41.217Z,10.23
2023-05-07T06:18:43.080Z,18.33
2023-05-07T06:23:45.675Z,13.70
2023-05-07T06:28:48.720Z,13.38
2023-05-07T06:33:52.076Z,10.98
2023-05-07T06:38:54.332Z,11.40
2023-05-07T06:43:56.491Z,10.60
2023-05-07T06:49:21.239Z,7.88
2023-05-07T06:54:24.907Z,8.07
2023-05-07T06:59:27.721Z,9.30
2023-05-07T07:04:30.241Z,9.23
2023-05-07T07:09:40.509Z,6.07
2023-05-07T07:14:44.264Z,5.45
2023-05-07T07:19:46.188Z,7.88
2023-05-07T07:24:48.304Z,5.68
2023-05-07T07:29:52.830Z,6.40
2023-05-07T07:34:55.355Z,8.82
2023-05-07T07:39:57.331Z,7.30
2023-05-07T07:44:59.521Z,8.60
2023-05-07T07:50:05.025Z,8.38
2023-05-07T07:55:08.077Z,7.72
2023-05-07T08:00:11.159Z,6.35
2023-05-07T08:05:18.535Z,5.97
2023-05-07T08:10:22.978Z,5.78
2023-05-07T08:15:29.805Z,6.45
2023-05-07T08:20:32.043Z,10.63
2023-05-07T08:25:35.728Z,5.35
2023-05-07T08:30:38.313Z,3.38
2023-05-07T08:35:40.512Z,7.00
2023-05-07T08:40:44.470Z,4.90
2023-05-07T08:45:56.543Z,4.20
2023-05-07T08:51:03.100Z,3.38
2023-05-07T08:56:05.972Z,4.75
2023-05-07T09:01:17.671Z,3.33
2023-05-07T09:06:23.148Z,5.43
2023-05-07T09:11:25.950Z,4.03
2023-05-07T09:16:33.834Z,4.65
2023-05-07T09:21:36.854Z,4.82
2023-05-07T09:26:42.474Z,5.68
2023-05-07T09:31:46.419Z,8.55
2023-05-07T09:36:51.204Z,5.05
2023-05-07T09:41:55.557Z,8.27
2023-05-07T09:47:08.067Z,5.68
2023-05-07T09:52:16.159Z,5.97
2023-05-07T09:57:25.180Z,5.97
2023-05-07T10:02:33.647Z,9.40
2023-05-07T10:07:36.761Z,6.72
2023-05-07T10:12:43.017Z,6.57
2023-05-07T10:17:54.498Z,6.10
2023-05-07T10:22:59.891Z,5.70
2023-05-07T10:28:12.221Z,6.75
2023-05-07T10:33:25.503Z,8.32
2023-05-07T10:38:28.846Z,6.05
2023-05-07T10:43:45.591Z,6.70
2023-05-07T10:49:05.383Z,5.03
2023-05-07T10:54:37.801Z,8.93
2023-05-07T10:59:44.877Z,8.90
2023-05-07T11:05:21.173Z,5.78
2023-05-07T11:10:49.059Z,4.57
2023-05-07T11:16:00.009Z,8.25
2023-05-07T11:21:11.001Z,5.07
2023-05-07T11:26:23.581Z,6.25
2023-05-07T11:31:30.971Z,7.85
2023-05-07T11:36:36.883Z,6.90
2023-05-07T11:41:44.096Z,9.68
2023-05-07T11:46:46.444Z,7.32
2023-05-07T11:51:48.409Z,7.72
2023-05-07T11:56:50.361Z,5.40
2023-05-07T12:01:52.165Z,5.78
2023-05-07T12:06:57.020Z,5.00
2023-05-07T12:12:04.827Z,5.55
2023-05-07T12:17:08.799Z,8.00
2023-05-07T12:22:11.765Z,6.70
2023-05-07T12:27:14.766Z,8.27
2023-05-07T12:32:18.328Z,6.90
2023-05-07T12:37:27.891Z,5.38
2023-05-07T12:42:37.633Z,9.57
2023-05-07T12:47:39.989Z,6.72
2023-05-07T12:52:42.588Z,9.30
2023-05-07T12:57:49.214Z,6.60
2023-05-07T13:02:51.323Z,7.20
2023-05-07T13:07:57.201Z,5.50
2023-05-07T13:12:59.200Z,8.00
2023-05-07T13:18:01.310Z,5.72
2023-05-07T13:23:05.550Z,7.53
2023-05-07T13:28:11.337Z,6.57
2023-05-07T13:33:14.360Z,6.75
2023-05-07T13:38:17.317Z,7.65
2023-05-07T13:43:19.905Z,7.07
2023-05-07T13:48:21.732Z,4.60
2023-05-07T13:53:23.639Z,5.13
2023-05-07T13:58:25.612Z,5.85
2023-05-07T14:03:27.602Z,5.72
2023-05-07T14:08:31.650Z,8.15
2023-05-07T14:13:35.712Z,5.78
2023-05-07T14:18:39.756Z,6.55
2023-05-07T14:23:41.786Z,7.88
2023-05-07T14:28:47.416Z,5.45
2023-05-07T14:33:50.930Z,6.05
2023-05-07T14:38:55.915Z,5.00
2023-05-07T14:43:57.908Z,4.70
2023-05-07T14:48:59.749Z,4.97
2023-05-07T14:54:02.651Z,3.92
2023-05-07T14:59:04.820Z,3.80
2023-05-07T15:04:06.877Z,4.25
2023-05-07T15:09:10.141Z,4.32
2023-05-07T15:14:12.187Z,3.83
2023-05-07T15:19:16.076Z,6.38
2023-05-07T15:24:17.991Z,3.95
2023-05-07T15:29:19.870Z,3.72
2023-05-07T15:34:23.621Z,5.53
2023-05-07T15:39:25.656Z,4.93
2023-05-07T15:44:29.712Z,7.03
2023-05-07T15:49:31.614Z,6.57
2023-05-07T15:54:33.489Z,8.05
2023-05-07T15:59:36.321Z,6.30
2023-05-07T16:04:38.092Z,4.07
2023-05-07T16:09:40.727Z,4.18
2023-05-07T16:14:42.557Z,5.90
2023-05-07T16:19:44.344Z,6.53
2023-05-07T16:24:46.383Z,8.35
2023-05-07T16:29:49.260Z,9.23
2023-05-07T16:34:51.882Z,4.22
2023-05-07T16:39:53.737Z,6.13
2023-05-07T16:44:55.852Z,5.38
2023-05-07T16:49:58.251Z,6.40
2023-05-07T16:55:01.688Z,6.32
2023-05-07T17:00:07.565Z,7.45
2023-05-07T17:05:10.003Z,5.78
2023-05-07T17:10:12.010Z,9.20
2023-05-07T17:15:14.150Z,6.93
2023-05-07T17:20:16.364Z,4.45
2023-05-07T17:25:18.427Z,4.63
2023-05-07T17:30:20.382Z,6.40
2023-05-07T17:35:22.205Z,6.10
2023-05-07T17:40:24.095Z,7.45
2023-05-07T17:45:25.896Z,6.57
2023-05-07T17:50:28.367Z,8.00
2023-05-07T17:55:33.014Z,5.68
2023-05-07T18:00:36.420Z,7.00
2023-05-07T18:05:39.932Z,6.93
2023-05-07T18:10:41.866Z,10.48
2023-05-07T18:15:46.116Z,7.13
2023-05-07T18:20:53.490Z,7.60
2023-05-07T18:25:55.655Z,7.20
2023-05-07T18:30:57.497Z,6.07
2023-05-07T18:36:00.145Z,6.28
2023-05-07T18:41:04.446Z,6.43
2023-05-07T18:46:06.681Z,7.32
2023-05-07T18:51:12.676Z,7.80
2023-05-07T18:56:14.558Z,6.32
2023-05-07T19:01:16.426Z,8.35
2023-05-07T19:06:18.345Z,7.75
2023-05-07T19:11:25.054Z,6.32
2023-05-07T19:16:26.881Z,9.98
2023-05-07T19:21:31.129Z,7.38
2023-05-07T19:26:32.949Z,8.65
2023-05-07T19:31:34.803Z,6.90
2023-05-07T19:36:38.215Z,8.13
2023-05-07T19:41:42.010Z,8.30
2023-05-07T19:46:46.348Z,7.82
2023-05-07T19:51:48.124Z,8.07
2023-05-07T19:56:49.887Z,7.72
2023-05-07T20:01:51.771Z,7.35
2023-05-07T20:06:53.950Z,7.78
2023-05-07T20:11:56.790Z,6.05
2023-05-07T20:16:58.701Z,6.60
2023-05-07T20:22:00.500Z,6.22
2023-05-07T20:27:04.021Z,7.55
2023-05-07T20:32:05.988Z,8.90
2023-05-07T20:37:11.908Z,7.18
2023-05-07T20:42:14.238Z,8.27
2023-05-07T20:47:16.377Z,7.22
2023-05-07T20:52:18.371Z,10.75
2023-05-07T20:57:20.295Z,5.25
2023-05-07T21:02:22.226Z,7.88
2023-05-07T21:07:24.039Z,5.40
2023-05-07T21:12:25.867Z,11.23
2023-05-07T21:17:31.881Z,10.00
2023-05-07T21:22:33.969Z,7.40
2023-05-07T21:27:35.931Z,9.40
2023-05-07T21:32:37.715Z,6.00
2023-05-07T21:37:39.666Z,6.40
2023-05-07T21:42:41.684Z,4.50
2023-05-07T21:47:43.643Z,5.25
2023-05-07T21:52:45.756Z,6.25
2023-05-07T21:58:01.269Z,5.05
2023-05-07T22:03:06.432Z,6.70
2023-05-07T22:08:08.291Z,9.77
2023-05-07T22:13:10.429Z,7.07
2023-05-07T22:18:12.152Z,5.28
2023-05-07T22:23:13.975Z,5.38
2023-05-07T22:28:17.310Z,5.70
2023-05-07T22:33:19.189Z,6.13
2023-05-07T22:38:21.040Z,6.43
2023-05-07T22:43:22.911Z,6.05
2023-05-07T22:48:24.805Z,6.72
2023-05-07T22:53:26.736Z,7.68
2023-05-07T22:58:28.562Z,6.07
2023-05-07T23:03:30.645Z,7.65
2023-05-07T23:08:32.525Z,4.53
2023-05-07T23:13:34.375Z,6.72
2023-05-07T23:18:36.145Z,7.13
2023-05-07T23:23:37.913Z,7.85
2023-05-07T23:28:39.918Z,6.80
2023-05-07T23:33:41.975Z,5.53
2023-05-07T23:38:43.813Z,6.38
2023-05-07T23:43:45.676Z,4.72
2023-05-07T23:48:47.667Z,5.60
2023-05-07T23:53:49.593Z,5.40
2023-05-07T23:58:51.461Z,6.25
